Time;durP1;ratioP1;P1;durP2;ratioP2;P2;SDS_P1;SDS_P2;PMS_P1;PMS_P2;Temp;Humidity;BMP_temperature;BMP_pressure;BME280_temperature;BME280_humidity;BME280_pressure;Samples;Min_cycle;Max_cycle;Signal;HPM_P1;HPM_P2
2021/10/15 00:00:42;;;;;;;5.53;4.63;;;;;;;;;;5058332;28;20193;-84
2021/10/15 00:03:08;;;;;;;4.60;3.95;;;;;;;;;;5060525;28;20185;-85
2021/10/15 00:05:34;;;;;;;5.00;3.72;;;;;;;;;;5056644;28;25428;-85
2021/10/15 00:08:00;;;;;;;5.93;3.75;;;;;;;;;;5054499;28;20204;-85
2021/10/15 00:10:26;;;;;;;4.40;3.67;;;;;;;;;;5056272;28;20181;-85
2021/10/15 00:12:52;;;;;;;4.05;3.65;;;;;;;;;;5057851;28;20213;-84
2021/10/15 00:15:18;;;;;;;5.20;4.00;;;;;;;;;;5062415;28;20188;-84
2021/10/15 00:17:44;;;;;;;4.88;4.38;;;;;;;;;;5061756;28;20452;-85
2021/10/15 00:20:14;;;;;;;4.78;3.72;;;;;;;;;;5060243;28;20173;-85
2021/10/15 00:22:40;;;;;;;6.07;4.55;;;;;;;;;;5060577;28;20177;-85
2021/10/15 00:25:06;;;;;;;4.30;3.90;;;;;;;;;;5057117;28;20243;-85
2021/10/15 00:27:32;;;;;;;4.18;3.50;;;;;;;;;;5060364;28;20212;-85
2021/10/15 00:29:58;;;;;;;5.28;4.70;;;;;;;;;;5077244;28;20184;-85
2021/10/15 00:32:24;;;;;;;5.75;3.70;;;;;;;;;;5056633;28;20201;-86
2021/10/15 00:34:50;;;;;;;4.60;4.17;;;;;;;;;;5058913;28;20354;-85
2021/10/15 00:37:19;;;;;;;4.45;4.05;;;;;;;;;;5055471;28;20458;-85
2021/10/15 00:39:45;;;;;;;8.77;4.85;;;;;;;;;;5058166;28;20829;-85
2021/10/15 00:42:11;;;;;;;5.05;4.65;;;;;;;;;;5059861;28;20256;-86
2021/10/15 00:44:37;;;;;;;5.82;4.65;;;;;;;;;;5057399;28;20236;-85
2021/10/15 00:47:03;;;;;;;5.00;4.60;;;;;;;;;;5060714;28;20180;-85
2021/10/15 00:49:29;;;;;;;6.10;4.50;;;;;;;;;;5060548;28;20177;-85
2021/10/15 00:51:55;;;;;;;4.65;4.15;;;;;;;;;;5058390;28;20273;-85
2021/10/15 00:54:22;;;;;;;4.00;3.50;;;;;;;;;;5062244;28;20269;-85
2021/10/15 00:56:48;;;;;;;4.65;4.28;;;;;;;;;;5073350;28;20181;-84
2021/10/15 00:59:14;;;;;;;5.68;3.97;;;;;;;;;;5059158;28;20213;-84
2021/10/15 01:01:40;;;;;;;6.53;4.35;;;;;;;;;;5062284;28;20181;-85
2021/10/15 01:04:06;;;;;;;5.03;4.20;;;;;;;;;;5054738;28;20181;-84
2021/10/15 01:06:33;;;;;;;6.30;3.95;;;;;;;;;;5057255;28;20246;-85
2021/10/15 01:08:59;;;;;;;4.13;3.83;;;;;;;;;;5074738;28;20444;-85
2021/10/15 01:11:26;;;;;;;4.03;3.63;;;;;;;;;;5056153;28;20186;-85
2021/10/15 01:13:52;;;;;;;4.10;3.70;;;;;;;;;;5061707;28;20688;-85
2021/10/15 01:16:22;;;;;;;4.28;3.60;;;;;;;;;;5060271;28;20264;-83
2021/10/15 01:18:48;;;;;;;4.95;3.95;;;;;;;;;;5056297;28;20184;-85
2021/10/15 01:21:14;;;;;;;4.50;3.53;;;;;;;;;;5061437;28;20200;-85
2021/10/15 01:23:41;;;;;;;5.28;4.70;;;;;;;;;;5056555;28;20754;-85
2021/10/15 01:26:07;;;;;;;5.07;3.85;;;;;;;;;;5064211;28;20267;-85
2021/10/15 01:28:34;;;;;;;10.32;3.90;;;;;;;;;;5055940;28;20180;-85
2021/10/15 01:31:00;;;;;;;4.90;4.43;;;;;;;;;;5058876;28;20188;-84
2021/10/15 01:33:26;;;;;;;4.28;3.90;;;;;;;;;;5058224;28;20264;-86
2021/10/15 01:35:52;;;;;;;4.32;3.92;;;;;;;;;;5073111;28;20257;-85
2021/10/15 01:38:18;;;;;;;6.35;4.25;;;;;;;;;;5055464;28;20181;-85
2021/10/15 01:40:45;;;;;;;5.65;3.85;;;;;;;;;;5063196;28;20165;-86
2021/10/15 01:43:11;;;;;;;5.40;4.10;;;;;;;;;;5058801;28;20188;-86
2021/10/15 01:45:37;;;;;;;5.00;3.90;;;;;;;;;;5056337;28;20225;-86
2021/10/15 01:48:03;;;;;;;4.03;3.63;;;;;;;;;;5058579;28;20609;-86
2021/10/15 01:50:30;;;;;;;5.05;4.25;;;;;;;;;;5057163;28;20420;-86
2021/10/15 01:52:56;;;;;;;4.35;3.95;;;;;;;;;;5058151;28;20224;-85
2021/10/15 01:55:22;;;;;;;4.82;3.95;;;;;;;;;;5057789;28;20181;-85
2021/10/15 01:57:48;;;;;;;4.70;3.20;;;;;;;;;;5055745;28;20189;-86
2021/10/15 02:00:15;;;;;;;4.13;3.75;;;;;;;;;;5060056;28;20192;-85
2021/10/15 02:02:42;;;;;;;3.75;3.45;;;;;;;;;;5070641;28;20192;-85
2021/10/15 02:05:09;;;;;;;4.60;4.20;;;;;;;;;;5058252;28;20180;-86
2021/10/15 02:07:35;;;;;;;8.82;3.67;;;;;;;;;;5054481;28;20189;-86
2021/10/15 02:10:01;;;;;;;4.57;3.55;;;;;;;;;;5054808;28;20213;-85
2021/10/15 02:12:27;;;;;;;4.57;3.78;;;;;;;;;;5057188;28;20204;-85
2021/10/15 02:14:53;;;;;;;4.50;3.77;;;;;;;;;;5072534;28;20189;-84
2021/10/15 02:17:19;;;;;;;3.77;3.47;;;;;;;;;;5056803;28;20429;-85
2021/10/15 02:19:45;;;;;;;3.50;3.20;;;;;;;;;;5056641;28;20425;-85
2021/10/15 02:22:11;;;;;;;4.85;4.35;;;;;;;;;;5060150;28;20439;-86
2021/10/15 02:24:37;;;;;;;4.10;3.80;;;;;;;;;;5056138;28;20180;-85
2021/10/15 02:27:04;;;;;;;4.47;3.90;;;;;;;;;;5057540;28;20425;-86
2021/10/15 02:29:30;;;;;;;4.30;3.90;;;;;;;;;;5060631;28;20177;-85
2021/10/15 02:31:56;;;;;;;4.18;3.78;;;;;;;;;;5062813;28;20165;-86
2021/10/15 02:34:22;;;;;;;4.47;4.07;;;;;;;;;;5056959;28;20181;-85
2021/10/15 02:36:49;;;;;;;4.35;3.95;;;;;;;;;;5058006;28;20280;-86
2021/10/15 02:39:15;;;;;;;4.75;3.45;;;;;;;;;;5058690;28;20185;-86
2021/10/15 02:41:41;;;;;;;4.32;3.88;;;;;;;;;;5071135;28;20188;-87
2021/10/15 02:44:07;;;;;;;4.50;4.05;;;;;;;;;;5053152;28;20788;-86
2021/10/15 02:46:33;;;;;;;3.90;3.50;;;;;;;;;;5058989;28;20193;-86
2021/10/15 02:49:00;;;;;;;4.40;4.07;;;;;;;;;;5054785;28;20193;-86
2021/10/15 02:51:26;;;;;;;3.75;3.35;;;;;;;;;;5058903;28;20185;-86
2021/10/15 02:53:52;;;;;;;5.53;3.50;;;;;;;;;;5072251;28;20220;-86
2021/10/15 02:56:18;;;;;;;6.97;3.92;;;;;;;;;;5057049;28;20177;-85
2021/10/15 02:58:44;;;;;;;4.95;4.18;;;;;;;;;;5056052;28;20211;-86
2021/10/15 03:01:10;;;;;;;4.10;3.33;;;;;;;;;;5054149;28;20685;-86
2021/10/15 03:03:36;;;;;;;4.65;4.13;;;;;;;;;;5057336;28;20873;-86
2021/10/15 03:06:02;;;;;;;3.90;3.60;;;;;;;;;;5057806;28;20190;-86
2021/10/15 03:08:28;;;;;;;5.50;3.72;;;;;;;;;;5062720;28;20422;-86
2021/10/15 03:10:54;;;;;;;6.75;4.35;;;;;;;;;;5057164;28;20177;-86
2021/10/15 03:13:20;;;;;;;7.28;3.45;;;;;;;;;;5054607;28;20205;-86
2021/10/15 03:15:46;;;;;;;7.13;3.88;;;;;;;;;;5059865;28;20185;-87
2021/10/15 03:18:12;;;;;;;3.60;3.20;;;;;;;;;;5061499;28;20256;-86
2021/10/15 03:20:38;;;;;;;3.58;3.10;;;;;;;;;;5064488;28;20638;-86
2021/10/15 03:23:04;;;;;;;5.10;3.95;;;;;;;;;;5064415;28;20548;-87
2021/10/15 03:25:30;;;;;;;3.92;3.53;;;;;;;;;;5065425;28;20239;-86
2021/10/15 03:27:57;;;;;;;6.32;3.50;;;;;;;;;;5060395;28;20558;-86
2021/10/15 03:30:23;;;;;;;4.22;3.83;;;;;;;;;;5058920;28;20189;-86
2021/10/15 03:32:49;;;;;;;5.03;4.55;;;;;;;;;;5064317;28;20209;-85
2021/10/15 03:35:15;;;;;;;4.05;3.60;;;;;;;;;;5060221;28;20180;-85
2021/10/15 03:37:41;;;;;;;4.07;3.65;;;;;;;;;;5064376;28;20177;-87
2021/10/15 03:40:07;;;;;;;5.82;3.95;;;;;;;;;;5058375;28;20178;-86
2021/10/15 03:42:33;;;;;;;4.75;4.32;;;;;;;;;;5061390;28;20644;-86
2021/10/15 03:44:59;;;;;;;4.47;4.07;;;;;;;;;;5062134;28;20225;-86
2021/10/15 03:47:25;;;;;;;4.38;4.07;;;;;;;;;;5047637;28;20185;-85
2021/10/15 03:49:51;;;;;;;5.20;3.80;;;;;;;;;;5059587;28;20169;-85
2021/10/15 03:52:17;;;;;;;3.83;3.47;;;;;;;;;;5058607;28;20515;-86
2021/10/15 03:54:43;;;;;;;4.50;4.20;;;;;;;;;;5064782;28;20187;-86
2021/10/15 03:57:09;;;;;;;4.32;3.58;;;;;;;;;;5061640;28;20185;-86
2021/10/15 03:59:35;;;;;;;4.32;3.60;;;;;;;;;;5057481;28;20182;-87
2021/10/15 04:02:01;;;;;;;4.40;3.40;;;;;;;;;;5060660;28;20634;-86
2021/10/15 04:04:28;;;;;;;4.47;3.80;;;;;;;;;;5057197;28;20200;-86
2021/10/15 04:06:54;;;;;;;4.47;4.10;;;;;;;;;;5055630;28;20224;-86
2021/10/15 04:09:20;;;;;;;4.03;3.72;;;;;;;;;;5061665;28;20181;-86
2021/10/15 04:11:46;;;;;;;4.60;3.83;;;;;;;;;;5073990;28;20235;-86
2021/10/15 04:14:12;;;;;;;5.07;4.57;;;;;;;;;;5060722;28;20509;-86
2021/10/15 04:16:38;;;;;;;5.00;3.80;;;;;;;;;;5057427;28;20181;-87
2021/10/15 04:19:04;;;;;;;4.15;3.83;;;;;;;;;;5056716;28;20214;-85
2021/10/15 04:21:30;;;;;;;4.55;3.78;;;;;;;;;;5059411;28;20184;-86
2021/10/15 04:23:56;;;;;;;6.03;4.43;;;;;;;;;;5074739;28;20261;-85
2021/10/15 04:26:23;;;;;;;4.38;4.05;;;;;;;;;;5058034;28;20169;-86
2021/10/15 04:28:49;;;;;;;5.55;4.05;;;;;;;;;;5060092;28;20181;-85
2021/10/15 04:31:15;;;;;;;4.80;4.25;;;;;;;;;;5061132;28;20552;-86
2021/10/15 04:33:41;;;;;;;4.50;4.10;;;;;;;;;;5060512;28;20220;-87
2021/10/15 04:36:07;;;;;;;5.10;4.60;;;;;;;;;;5072946;28;20186;-87
2021/10/15 04:38:33;;;;;;;4.43;4.10;;;;;;;;;;5057343;28;20208;-87
2021/10/15 04:40:59;;;;;;;10.73;4.00;;;;;;;;;;5063773;28;20169;-85
2021/10/15 04:43:25;;;;;;;5.50;4.07;;;;;;;;;;5055245;28;20215;-87
2021/10/15 04:45:51;;;;;;;4.28;3.85;;;;;;;;;;5061753;28;20489;-86
2021/10/15 04:48:17;;;;;;;4.03;3.63;;;;;;;;;;5059844;28;20252;-86
2021/10/15 04:50:43;;;;;;;4.20;3.90;;;;;;;;;;5072203;28;20186;-85
2021/10/15 04:53:09;;;;;;;5.97;4.07;;;;;;;;;;5059546;28;20284;-86
2021/10/15 04:55:35;;;;;;;5.50;4.28;;;;;;;;;;5061643;28;20185;-86
2021/10/15 04:58:01;;;;;;;5.55;4.32;;;;;;;;;;5058051;28;20189;-86
2021/10/15 05:00:28;;;;;;;4.35;3.95;;;;;;;;;;5059320;28;20185;-87
2021/10/15 05:02:54;;;;;;;4.82;4.30;;;;;;;;;;5074439;28;20201;-86
2021/10/15 05:05:23;;;;;;;10.63;4.75;;;;;;;;;;5058869;28;20219;-86
2021/10/15 05:07:49;;;;;;;5.70;4.80;;;;;;;;;;5061207;28;20174;-87
2021/10/15 05:10:15;;;;;;;6.72;3.65;;;;;;;;;;5056890;28;20185;-87
2021/10/15 05:12:42;;;;;;;4.60;4.20;;;;;;;;;;5059116;28;20212;-86
2021/10/15 05:15:11;;;;;;;4.25;3.85;;;;;;;;;;5060580;28;20435;-86
2021/10/15 05:17:38;;;;;;;5.63;4.35;;;;;;;;;;5056238;28;20245;-87
2021/10/15 05:20:05;;;;;;;4.90;4.50;;;;;;;;;;5064014;28;20189;-87
2021/10/15 05:22:31;;;;;;;5.35;4.35;;;;;;;;;;5056253;28;20177;-86
2021/10/15 05:24:57;;;;;;;4.70;4.22;;;;;;;;;;5055939;28;20196;-87
2021/10/15 05:27:23;;;;;;;7.32;4.38;;;;;;;;;;5059958;28;20185;-86
2021/10/15 05:29:49;;;;;;;4.47;3.30;;;;;;;;;;5059201;28;20196;-87
2021/10/15 05:32:16;;;;;;;6.45;4.60;;;;;;;;;;5056741;28;20200;-86
2021/10/15 05:34:42;;;;;;;4.68;4.00;;;;;;;;;;5062730;28;20169;-86
2021/10/15 05:37:08;;;;;;;4.68;4.25;;;;;;;;;;5058942;28;20193;-86
2021/10/15 05:39:34;;;;;;;4.40;4.00;;;;;;;;;;5056581;28;20196;-85
2021/10/15 05:42:00;;;;;;;5.63;4.60;;;;;;;;;;5073569;28;20196;-87
2021/10/15 05:44:26;;;;;;;6.68;4.93;;;;;;;;;;5057432;28;20225;-85
2021/10/15 05:46:52;;;;;;;7.95;4.90;;;;;;;;;;5061698;28;20207;-86
2021/10/15 05:49:18;;;;;;;5.40;4.85;;;;;;;;;;5055406;28;20180;-87
2021/10/15 05:51:48;;;;;;;5.65;5.15;;;;;;;;;;5058217;28;20193;-86
2021/10/15 05:54:28;;;;;;;7.10;4.40;;;;;;;;;;5059922;28;20201;-87
2021/10/15 05:59:22;;;;;;;5.55;4.93;;;;;;;;;;5060622;28;20204;-86
2021/10/15 06:01:48;;;;;;;5.67;5.00;;;;;;;;;;5062697;28;20173;-86
2021/10/15 06:05:42;;;;;;;7.65;4.15;;;;;;;;;;5059625;28;20445;-86
2021/10/15 06:15:05;;;;;;;5.18;4.65;;;;;;;;;;5059412;28;20192;-86
2021/10/15 06:17:34;;;;;;;8.98;5.20;;;;;;;;;;5055842;28;20716;-87
2021/10/15 06:20:00;;;;;;;6.85;5.20;;;;;;;;;;5062902;28;20180;-88
2021/10/15 06:22:27;;;;;;;9.57;5.05;;;;;;;;;;5059223;28;20201;-86
2021/10/15 06:24:53;;;;;;;5.72;5.22;;;;;;;;;;5057123;28;20199;-88
2021/10/15 06:27:20;;;;;;;5.72;5.22;;;;;;;;;;5050824;28;20189;-87
2021/10/15 06:29:48;;;;;;;6.55;5.35;;;;;;;;;;5057179;28;20196;-87
2021/10/15 06:32:14;;;;;;;5.30;4.80;;;;;;;;;;5056565;28;20185;-87
2021/10/15 06:34:40;;;;;;;6.95;5.05;;;;;;;;;;5056605;28;20177;-87
2021/10/15 06:37:06;;;;;;;7.60;4.50;;;;;;;;;;5060217;28;20618;-87
2021/10/15 06:39:32;;;;;;;5.88;4.97;;;;;;;;;;5057427;28;20431;-88
2021/10/15 06:41:59;;;;;;;5.82;5.20;;;;;;;;;;5074685;28;20213;-88
2021/10/15 06:44:25;;;;;;;4.75;4.30;;;;;;;;;;5060291;28;20708;-88
2021/10/15 06:46:52;;;;;;;5.63;5.13;;;;;;;;;;5077104;28;20177;-88
2021/10/15 06:49:18;;;;;;;7.63;5.13;;;;;;;;;;5055761;28;20181;-87
2021/10/15 06:51:45;;;;;;;6.55;4.65;;;;;;;;;;5052342;28;20655;-88
2021/10/15 06:54:11;;;;;;;6.43;4.75;;;;;;;;;;5064700;28;20210;-90
2021/10/15 06:56:37;;;;;;;5.93;5.25;;;;;;;;;;5060731;28;20178;-89
2021/10/15 06:59:04;;;;;;;5.93;4.68;;;;;;;;;;5060815;28;20746;-90
2021/10/15 07:01:30;;;;;;;6.15;5.10;;;;;;;;;;5053652;28;20201;-86
2021/10/15 07:03:57;;;;;;;7.50;5.43;;;;;;;;;;5056198;28;20201;-87
2021/10/15 07:06:23;;;;;;;6.90;5.72;;;;;;;;;;5055645;28;20188;-89
2021/10/15 07:08:49;;;;;;;9.68;5.32;;;;;;;;;;5051409;28;20201;-89
2021/10/15 07:11:15;;;;;;;19.13;7.78;;;;;;;;;;5076927;28;20178;-89
2021/10/15 07:13:41;;;;;;;11.80;6.80;;;;;;;;;;5055826;28;20193;-89
2021/10/15 07:16:08;;;;;;;7.60;6.45;;;;;;;;;;5058115;28;20227;-89
2021/10/15 07:18:34;;;;;;;8.45;6.20;;;;;;;;;;5055796;28;20182;-88
2021/10/15 07:21:00;;;;;;;7.45;6.15;;;;;;;;;;5058437;28;20181;-89
2021/10/15 07:23:26;;;;;;;7.75;5.57;;;;;;;;;;5059475;28;20216;-89
2021/10/15 07:25:52;;;;;;;9.05;6.10;;;;;;;;;;5057540;28;20195;-89
2021/10/15 07:28:18;;;;;;;6.47;5.20;;;;;;;;;;5055841;28;20182;-88
2021/10/15 07:30:44;;;;;;;5.77;5.27;;;;;;;;;;5067972;28;20196;-90
2021/10/15 07:33:10;;;;;;;7.95;5.72;;;;;;;;;;5058341;28;20459;-89
2021/10/15 07:35:37;;;;;;;7.68;6.03;;;;;;;;;;5055001;28;20212;-89
2021/10/15 07:38:03;;;;;;;8.05;6.30;;;;;;;;;;5061754;28;20211;-88
2021/10/15 07:40:29;;;;;;;6.63;5.75;;;;;;;;;;5060258;28;20199;-88
2021/10/15 07:42:55;;;;;;;12.40;6.17;;;;;;;;;;5057782;28;20216;-87
2021/10/15 07:45:21;;;;;;;9.13;6.50;;;;;;;;;;5059835;28;20558;-87
2021/10/15 07:47:47;;;;;;;5.53;5.03;;;;;;;;;;5056846;28;20200;-87
2021/10/15 07:50:13;;;;;;;6.80;5.90;;;;;;;;;;5071394;28;20715;-86
2021/10/15 07:52:40;;;;;;;6.35;5.63;;;;;;;;;;5056758;28;20209;-87
2021/10/15 07:55:06;;;;;;;7.88;5.93;;;;;;;;;;5057540;28;20177;-87
2021/10/15 07:57:32;;;;;;;6.38;5.57;;;;;;;;;;5058735;28;20185;-86
2021/10/15 07:59:58;;;;;;;9.23;6.72;;;;;;;;;;5059979;28;20192;-88
2021/10/15 08:02:26;;;;;;;7.37;5.83;;;;;;;;;;5059969;28;20200;-87
2021/10/15 08:04:52;;;;;;;6.82;5.65;;;;;;;;;;5054722;28;20416;-87
2021/10/15 08:07:18;;;;;;;7.60;6.50;;;;;;;;;;5063206;28;20208;-88
2021/10/15 08:09:44;;;;;;;11.87;5.90;;;;;;;;;;5058110;28;20277;-87
2021/10/15 08:12:10;;;;;;;6.45;5.10;;;;;;;;;;5060836;28;20428;-84
2021/10/15 08:14:36;;;;;;;7.38;5.03;;;;;;;;;;5052903;28;20189;-86
2021/10/15 08:17:02;;;;;;;10.20;5.67;;;;;;;;;;5059633;28;20173;-87
2021/10/15 08:19:28;;;;;;;9.13;6.03;;;;;;;;;;5056681;28;20447;-86
2021/10/15 08:21:54;;;;;;;8.60;6.10;;;;;;;;;;5062036;28;20192;-86
2021/10/15 08:24:20;;;;;;;8.63;6.43;;;;;;;;;;5061120;28;20932;-85
2021/10/15 08:26:46;;;;;;;8.32;6.90;;;;;;;;;;5067784;28;20443;-85
2021/10/15 08:29:12;;;;;;;8.63;6.57;;;;;;;;;;5056378;28;20193;-84
2021/10/15 08:31:38;;;;;;;7.70;6.50;;;;;;;;;;5058617;28;20208;-85
2021/10/15 08:34:07;;;;;;;10.43;6.60;;;;;;;;;;5060295;28;20208;-86
2021/10/15 08:36:33;;;;;;;8.18;6.70;;;;;;;;;;5060495;28;20183;-86
2021/10/15 08:38:59;;;;;;;8.85;7.28;;;;;;;;;;5057771;28;20193;-85
2021/10/15 08:41:25;;;;;;;9.35;7.97;;;;;;;;;;5074586;28;20858;-87
2021/10/15 08:43:55;;;;;;;8.75;7.80;;;;;;;;;;5064439;28;20235;-88
2021/10/15 08:46:22;;;;;;;9.80;8.80;;;;;;;;;;5057906;28;20542;-86
2021/10/15 08:48:48;;;;;;;10.85;8.68;;;;;;;;;;5059704;28;20219;-87
2021/10/15 08:51:15;;;;;;;9.63;8.63;;;;;;;;;;5059543;28;20211;-86
2021/10/15 08:53:45;;;;;;;8.63;7.78;;;;;;;;;;5056561;28;20205;-86
2021/10/15 08:56:11;;;;;;;11.70;8.27;;;;;;;;;;5059471;28;20177;-85
2021/10/15 08:58:44;;;;;;;11.93;9.02;;;;;;;;;;5051600;28;20199;-86
2021/10/15 09:01:10;;;;;;;10.18;8.15;;;;;;;;;;5057907;28;20192;-86
2021/10/15 09:03:36;;;;;;;9.38;7.72;;;;;;;;;;5058032;28;20193;-86
2021/10/15 09:06:03;;;;;;;11.25;8.00;;;;;;;;;;5059607;28;20543;-86
2021/10/15 09:08:47;;;;;;;10.90;9.90;;;;;;;;;;5057247;28;20184;-86
2021/10/15 09:11:23;;;;;;;9.25;7.55;;;;;;;;;;5060723;28;20177;-86
2021/10/15 09:13:49;;;;;;;9.77;7.75;;;;;;;;;;5057427;28;20216;-86
2021/10/15 09:16:15;;;;;;;8.73;7.30;;;;;;;;;;5056315;28;20192;-86
2021/10/15 09:18:44;;;;;;;8.85;7.47;;;;;;;;;;5057067;28;20186;-86
2021/10/15 09:21:14;;;;;;;10.38;7.40;;;;;;;;;;5071873;28;20188;-86
2021/10/15 09:23:45;;;;;;;12.55;6.85;;;;;;;;;;5056315;28;20196;-85
2021/10/15 09:26:12;;;;;;;6.95;6.32;;;;;;;;;;5061981;28;20271;-86
2021/10/15 09:28:42;;;;;;;6.80;6.13;;;;;;;;;;5056284;28;20272;-85
2021/10/15 09:31:08;;;;;;;9.18;6.10;;;;;;;;;;5055437;28;20660;-86
2021/10/15 09:33:34;;;;;;;6.97;6.00;;;;;;;;;;5056827;28;20533;-84
2021/10/15 09:36:04;;;;;;;7.70;6.63;;;;;;;;;;5058480;28;20194;-87
2021/10/15 09:38:30;;;;;;;7.78;5.82;;;;;;;;;;5057682;28;20677;-85
2021/10/15 09:40:56;;;;;;;9.40;6.87;;;;;;;;;;5057975;28;20173;-86
2021/10/15 09:43:32;;;;;;;7.60;5.70;;;;;;;;;;5055063;28;20470;-85
2021/10/15 09:45:58;;;;;;;12.07;6.70;;;;;;;;;;5056473;28;20276;-85
2021/10/15 09:48:35;;;;;;;8.50;6.30;;;;;;;;;;5059298;28;20189;-87
2021/10/15 09:51:21;;;;;;;6.63;5.80;;;;;;;;;;5058269;28;20436;-86
2021/10/15 09:54:06;;;;;;;9.73;5.50;;;;;;;;;;5071762;28;20228;-87
2021/10/15 09:56:46;;;;;;;8.60;5.07;;;;;;;;;;5055868;28;20196;-86
2021/10/15 09:59:12;;;;;;;7.60;5.40;;;;;;;;;;5059757;28;20203;-86
2021/10/15 10:01:41;;;;;;;6.53;5.22;;;;;;;;;;5055367;28;20608;-86
2021/10/15 10:04:08;;;;;;;5.95;5.45;;;;;;;;;;5058059;28;20186;-85
2021/10/15 10:06:34;;;;;;;5.65;5.15;;;;;;;;;;5058926;28;20244;-87
2021/10/15 10:09:00;;;;;;;6.45;4.95;;;;;;;;;;5058210;28;20186;-87
2021/10/15 10:11:27;;;;;;;9.88;5.65;;;;;;;;;;5056628;28;20184;-87
2021/10/15 10:13:53;;;;;;;5.93;5.32;;;;;;;;;;5056489;28;20232;-86
2021/10/15 10:16:21;;;;;;;7.43;5.00;;;;;;;;;;5055523;28;20541;-87
2021/10/15 10:18:47;;;;;;;10.82;5.93;;;;;;;;;;5055434;28;20189;-87
2021/10/15 10:21:22;;;;;;;5.95;5.45;;;;;;;;;;5072125;28;20268;-90
2021/10/15 10:23:53;;;;;;;9.23;5.63;;;;;;;;;;5071727;28;20614;-88
2021/10/15 10:26:22;;;;;;;7.15;5.85;;;;;;;;;;5057699;28;20177;-83
2021/10/15 10:29:02;;;;;;;10.30;5.50;;;;;;;;;;5057526;28;20181;-80
2021/10/15 10:31:28;;;;;;;7.03;5.72;;;;;;;;;;5058521;28;20234;-87
2021/10/15 10:33:59;;;;;;;6.25;5.63;;;;;;;;;;5054609;28;20236;-87
2021/10/15 10:36:27;;;;;;;9.30;5.05;;;;;;;;;;5059174;28;20174;-87
2021/10/15 10:38:53;;;;;;;7.65;5.13;;;;;;;;;;5057143;28;20178;-87
2021/10/15 10:41:24;;;;;;;7.53;5.38;;;;;;;;;;5055552;28;20184;-84
2021/10/15 10:43:50;;;;;;;10.77;6.75;;;;;;;;;;5055560;28;20220;-88
2021/10/15 10:46:19;;;;;;;6.70;5.50;;;;;;;;;;5054830;28;20196;-87
2021/10/15 10:48:48;;;;;;;9.10;5.97;;;;;;;;;;5055807;28;20438;-86
2021/10/15 10:51:14;;;;;;;10.05;6.05;;;;;;;;;;5071849;28;20583;-86
2021/10/15 10:54:03;;;;;;;8.35;5.93;;;;;;;;;;5052653;28;20214;-87
2021/10/15 10:56:41;;;;;;;6.63;5.72;;;;;;;;;;5075253;28;20183;-88
2021/10/15 10:59:24;;;;;;;6.30;5.70;;;;;;;;;;5072807;28;20182;-88
2021/10/15 11:02:02;;;;;;;8.00;5.35;;;;;;;;;;5060284;28;20189;-88
2021/10/15 11:04:31;;;;;;;7.07;5.53;;;;;;;;;;5054804;28;20610;-88
2021/10/15 11:07:04;;;;;;;6.28;4.80;;;;;;;;;;5056820;28;20196;-88
2021/10/15 11:09:31;;;;;;;6.70;5.35;;;;;;;;;;5047979;28;20210;-88
2021/10/15 11:11:57;;;;;;;5.60;4.80;;;;;;;;;;5056029;28;20189;-88
2021/10/15 11:14:42;;;;;;;5.15;4.15;;;;;;;;;;5058460;28;20199;-83
2021/10/15 11:17:09;;;;;;;7.05;4.60;;;;;;;;;;5055834;28;20189;-87
2021/10/15 11:19:35;;;;;;;5.47;4.45;;;;;;;;;;5057398;28;20551;-88
2021/10/15 11:22:01;;;;;;;7.33;4.70;;;;;;;;;;5055715;28;20191;-87
2021/10/15 11:24:27;;;;;;;7.72;4.05;;;;;;;;;;5057726;28;20442;-88
2021/10/15 11:26:55;;;;;;;8.77;5.25;;;;;;;;;;5056006;28;20273;-82
2021/10/15 11:29:21;;;;;;;4.95;4.20;;;;;;;;;;5057856;28;20176;-87
2021/10/15 11:31:56;;;;;;;6.75;3.70;;;;;;;;;;5057409;28;20202;-86
2021/10/15 11:34:23;;;;;;;5.40;4.38;;;;;;;;;;5072184;28;20216;-88
2021/10/15 11:37:01;;;;;;;5.63;3.60;;;;;;;;;;5062864;28;20189;-88
2021/10/15 11:39:27;;;;;;;4.88;3.65;;;;;;;;;;5053010;28;20270;-88
2021/10/15 11:41:53;;;;;;;4.60;3.40;;;;;;;;;;5074286;28;20262;-87
2021/10/15 11:44:34;;;;;;;4.10;3.33;;;;;;;;;;5059783;28;20468;-87
2021/10/15 11:47:00;;;;;;;3.95;3.25;;;;;;;;;;5060699;28;20425;-88
2021/10/15 11:49:34;;;;;;;4.50;3.58;;;;;;;;;;5058162;28;20649;-89
2021/10/15 11:52:00;;;;;;;6.10;3.60;;;;;;;;;;5052672;28;20211;-88
2021/10/15 11:54:26;;;;;;;8.57;4.07;;;;;;;;;;5059528;28;20207;-88
2021/10/15 11:56:52;;;;;;;6.45;3.30;;;;;;;;;;5073178;28;20439;-86
2021/10/15 11:59:22;;;;;;;5.33;3.10;;;;;;;;;;5061820;28;20213;-88
2021/10/15 12:01:48;;;;;;;3.33;3.00;;;;;;;;;;5061511;28;20422;-89
2021/10/15 12:04:14;;;;;;;4.25;3.88;;;;;;;;;;5057766;28;20216;-90
2021/10/15 12:06:51;;;;;;;4.30;3.83;;;;;;;;;;5064740;28;20180;-87
2021/10/15 12:09:19;;;;;;;5.55;3.45;;;;;;;;;;5059748;28;20185;-89
2021/10/15 12:12:11;;;;;;;4.78;3.70;;;;;;;;;;5064376;28;20181;-89
2021/10/15 12:14:37;;;;;;;4.38;3.97;;;;;;;;;;5054208;28;20217;-87
2021/10/15 12:17:07;;;;;;;5.53;3.28;;;;;;;;;;5060860;28;20275;-88
2021/10/15 12:19:33;;;;;;;5.43;2.65;;;;;;;;;;5058055;28;20201;-88
2021/10/15 12:21:59;;;;;;;4.15;3.30;;;;;;;;;;5058379;28;20674;-85
2021/10/15 12:24:30;;;;;;;4.32;2.97;;;;;;;;;;5060888;28;20243;-89
2021/10/15 12:27:09;;;;;;;4.28;3.10;;;;;;;;;;5059365;28;20181;-85
2021/10/15 12:29:37;;;;;;;3.05;2.70;;;;;;;;;;5075543;28;20194;-77
2021/10/15 12:32:09;;;;;;;3.55;2.92;;;;;;;;;;5070783;28;20825;-89
2021/10/15 12:34:50;;;;;;;2.58;2.38;;;;;;;;;;5060486;28;20254;-81
2021/10/15 12:37:16;;;;;;;2.28;2.08;;;;;;;;;;5057861;28;20181;-86
2021/10/15 12:39:42;;;;;;;3.40;3.10;;;;;;;;;;5061931;28;20178;-86
2021/10/15 12:42:15;;;;;;;4.33;2.90;;;;;;;;;;5059301;28;20432;-88
2021/10/15 12:44:42;;;;;;;8.07;3.20;;;;;;;;;;5057397;28;20525;-88
2021/10/15 12:47:09;;;;;;;4.70;3.25;;;;;;;;;;5056650;28;20720;-81
2021/10/15 12:49:53;;;;;;;5.80;3.38;;;;;;;;;;5058805;28;20192;-90
2021/10/15 12:52:33;;;;;;;4.30;3.60;;;;;;;;;;5055189;28;20185;-89
2021/10/15 12:55:06;;;;;;;5.22;3.03;;;;;;;;;;5057613;28;20182;-86
2021/10/15 12:57:36;;;;;;;5.22;3.35;;;;;;;;;;5058451;28;20442;-88
2021/10/15 13:00:07;;;;;;;3.90;3.33;;;;;;;;;;5059823;28;20244;-85
2021/10/15 13:02:33;;;;;;;4.45;3.33;;;;;;;;;;5056302;28;20846;-90
2021/10/15 13:05:03;;;;;;;4.25;3.85;;;;;;;;;;5059363;28;20173;-87
2021/10/15 13:07:29;;;;;;;6.80;4.05;;;;;;;;;;5059729;28;20182;-92
2021/10/15 13:09:56;;;;;;;4.85;3.45;;;;;;;;;;5061191;28;20192;-90
2021/10/15 13:12:23;;;;;;;5.65;4.00;;;;;;;;;;5060489;28;20185;-88
2021/10/15 13:14:49;;;;;;;4.65;4.18;;;;;;;;;;5068667;28;20201;-90
2021/10/15 13:17:15;;;;;;;7.93;5.28;;;;;;;;;;5053844;28;20182;-87
2021/10/15 13:19:41;;;;;;;5.68;3.92;;;;;;;;;;5054325;28;20177;-89
2021/10/15 13:22:07;;;;;;;5.93;4.60;;;;;;;;;;5060344;28;20191;-88
2021/10/15 13:24:33;;;;;;;5.15;4.15;;;;;;;;;;5056229;28;20780;-86
2021/10/15 13:26:59;;;;;;;5.13;3.30;;;;;;;;;;5059794;28;20193;-88
2021/10/15 13:29:26;;;;;;;3.75;2.90;;;;;;;;;;5059812;28;20185;-88
2021/10/15 13:31:52;;;;;;;4.10;3.13;;;;;;;;;;5066891;28;20183;-89
2021/10/15 13:34:17;;;;;;;4.93;3.72;;;;;;;;;;5066558;28;20204;-90
2021/10/15 13:36:46;;;;;;;3.43;3.13;;;;;;;;;;5057918;28;20189;-88
2021/10/15 13:39:14;;;;;;;4.00;3.20;;;;;;;;;;5059185;28;20435;-86
2021/10/15 13:42:34;;;;;;;4.65;2.70;;;;;;;;;;5066120;28;20207;-89
2021/10/15 13:52:10;;;;;;;2.83;2.53;;;;;;;;;;5054338;28;20177;-89
2021/10/15 13:54:36;;;;;;;3.03;1.83;;;;;;;;;;5056748;28;20569;-89
2021/10/15 13:57:05;;;;;;;3.10;2.13;;;;;;;;;;5056526;28;20407;-83
2021/10/15 13:59:36;;;;;;;3.03;2.10;;;;;;;;;;5057079;28;20442;-89
2021/10/15 14:02:07;;;;;;;1.83;1.67;;;;;;;;;;5062721;28;20422;-90
2021/10/15 14:04:38;;;;;;;5.10;2.10;;;;;;;;;;5056960;28;20430;-83
2021/10/15 14:07:05;;;;;;;4.90;2.40;;;;;;;;;;5058836;28;20437;-89
2021/10/15 14:09:31;;;;;;;3.90;1.70;;;;;;;;;;5058134;28;20475;-89
2021/10/15 14:11:57;;;;;;;3.17;2.03;;;;;;;;;;5072688;28;20445;-90
2021/10/15 14:14:23;;;;;;;5.17;2.23;;;;;;;;;;5057473;28;20478;-90
2021/10/15 14:16:49;;;;;;;3.50;2.17;;;;;;;;;;5057299;28;20416;-88
2021/10/15 14:19:15;;;;;;;2.17;1.97;;;;;;;;;;5058711;28;20412;-89
2021/10/15 14:21:41;;;;;;;2.50;1.90;;;;;;;;;;5055649;28;20434;-92
2021/10/15 14:24:07;;;;;;;2.37;2.00;;;;;;;;;;5057560;28;20402;-89
2021/10/15 14:26:33;;;;;;;3.40;2.50;;;;;;;;;;5059741;28;20526;-90
2021/10/15 14:28:59;;;;;;;3.37;2.17;;;;;;;;;;5050496;28;20399;-89
2021/10/15 14:31:25;;;;;;;4.93;2.27;;;;;;;;;;5059783;28;20409;-90
2021/10/15 14:33:51;;;;;;;3.53;2.23;;;;;;;;;;5055825;28;20523;-91
2021/10/15 14:36:17;;;;;;;2.53;2.33;;;;;;;;;;5058073;28;20465;-90
2021/10/15 14:38:43;;;;;;;5.13;2.40;;;;;;;;;;5055715;28;20414;-90
2021/10/15 14:41:09;;;;;;;3.77;2.47;;;;;;;;;;5059623;28;20656;-92
2021/10/15 14:43:36;;;;;;;2.65;2.45;;;;;;;;;;5058412;28;20466;-91
2021/10/15 14:46:02;;;;;;;4.47;2.60;;;;;;;;;;5055065;28;20650;-90
2021/10/15 14:48:28;;;;;;;6.18;2.58;;;;;;;;;;5057503;28;20194;-89
2021/10/15 14:50:54;;;;;;;5.28;2.33;;;;;;;;;;5045865;28;20278;-90
2021/10/15 14:53:20;;;;;;;7.27;2.50;;;;;;;;;;5055640;28;20230;-88
2021/10/15 14:55:46;;;;;;;2.92;2.28;;;;;;;;;;5057250;28;20539;-90
2021/10/15 14:58:12;;;;;;;6.47;2.08;;;;;;;;;;5054608;28;20178;-89
2021/10/15 15:00:40;;;;;;;2.60;2.40;;;;;;;;;;5056757;28;20750;-89
2021/10/15 15:03:05;;;;;;;2.72;2.30;;;;;;;;;;5051789;28;20349;-87